METAR Formatted Surface Weather Observation
Issued by NWS

Home | Current Version | Previous Version | Text Only | Print | Product List | Glossary On
Versions: 1
903
SAUS45 KPUB 221859
MTRSPD
METAR KSPD 221856Z AUTO 19017G26KT 31/13 A2998 RMK AO1 PK WND
20026/1853 SLPNO T03060133 $



USA.gov is the U.S. government's official web portal to all federal, state and local government web resources and services.